Time;durP1;ratioP1;P1;durP2;ratioP2;P2;SDS_P1;SDS_P2;PMS_P1;PMS_P2;Temp;Humidity;BMP_temperature;BMP_pressure;BME280_temperature;BME280_humidity;BME280_pressure;Samples;Min_cycle;Max_cycle;Signal;HPM_P1;HPM_P2
2022/12/07 00:02:11;;;;;;;13.80;9.33;;;2.80;99.90;;;;;;5222490;28;20865;-51
2022/12/07 00:04:42;;;;;;;14.50;9.43;;;2.70;99.90;;;;;;5201654;28;20647;-51
2022/12/07 00:07:13;;;;;;;16.60;9.07;;;2.70;99.90;;;;;;5225285;28;20691;-51
2022/12/07 00:09:44;;;;;;;12.23;9.10;;;2.70;99.90;;;;;;5224659;28;20187;-50
2022/12/07 00:12:14;;;;;;;13.17;9.47;;;2.70;99.90;;;;;;5205235;28;20479;-50
2022/12/07 00:14:46;;;;;;;9.33;7.83;;;2.70;99.90;;;;;;5225107;28;20662;-50
2022/12/07 00:17:17;;;;;;;19.57;8.67;;;2.70;99.90;;;;;;5207727;28;20214;-51
2022/12/07 00:19:48;;;;;;;11.03;8.03;;;2.80;99.90;;;;;;5205301;28;20491;-51
2022/12/07 00:22:18;;;;;;;14.10;8.83;;;2.80;99.90;;;;;;5226111;28;20225;-52
2022/12/07 00:24:49;;;;;;;14.13;9.07;;;2.80;99.90;;;;;;5220990;28;20187;-51
2022/12/07 00:27:19;;;;;;;11.00;8.63;;;2.70;99.90;;;;;;5202286;28;20226;-50
2022/12/07 00:29:50;;;;;;;16.20;8.70;;;2.80;99.90;;;;;;5204304;28;20658;-50
2022/12/07 00:32:21;;;;;;;16.90;9.60;;;2.70;99.90;;;;;;5205239;28;20194;-51
2022/12/07 00:34:51;;;;;;;11.17;7.67;;;2.70;99.90;;;;;;5218276;28;20194;-51
2022/12/07 00:37:22;;;;;;;10.50;8.20;;;2.70;99.90;;;;;;5209557;28;20207;-51
2022/12/07 00:39:53;;;;;;;9.30;7.23;;;2.60;99.90;;;;;;5206694;28;20662;-50
2022/12/07 00:42:23;;;;;;;13.07;8.70;;;2.60;99.90;;;;;;5222862;28;20639;-51
2022/12/07 00:44:54;;;;;;;13.57;8.80;;;2.60;99.90;;;;;;5223217;28;20190;-47
2022/12/07 00:47:25;;;;;;;12.60;8.57;;;2.60;99.90;;;;;;5200472;28;20215;-54
2022/12/07 00:49:55;;;;;;;19.97;8.27;;;2.60;99.90;;;;;;5209707;28;20195;-47
2022/12/07 00:52:26;;;;;;;10.80;7.67;;;2.50;99.90;;;;;;5209349;28;20183;-48
2022/12/07 00:54:57;;;;;;;12.30;8.03;;;2.50;99.90;;;;;;5206306;28;20674;-47
2022/12/07 00:57:27;;;;;;;14.20;8.53;;;2.50;99.90;;;;;;5222467;28;20215;-51
2022/12/07 01:00:00;;;;;;;11.93;9.33;;;2.40;99.90;;;;;;5206484;28;20180;-47
2022/12/07 01:02:30;;;;;;;12.00;8.60;;;2.40;99.90;;;;;;5225586;28;20619;-47
2022/12/07 01:05:01;;;;;;;10.57;8.37;;;2.30;99.90;;;;;;5209898;28;20485;-48
2022/12/07 01:07:32;;;;;;;11.20;8.20;;;2.20;99.90;;;;;;5209901;28;20301;-47
2022/12/07 01:10:03;;;;;;;9.13;6.87;;;2.10;99.90;;;;;;5210363;28;20183;-48
2022/12/07 01:12:33;;;;;;;12.50;8.37;;;2.10;99.90;;;;;;5220986;28;20225;-48
2022/12/07 01:15:05;;;;;;;8.70;7.53;;;1.90;99.90;;;;;;5218762;28;20860;-51
2022/12/07 01:17:36;;;;;;;12.60;8.43;;;1.90;99.90;;;;;;5211941;28;20238;-46
2022/12/07 01:20:07;;;;;;;12.03;8.23;;;1.90;99.90;;;;;;5212830;28;20457;-49
2022/12/07 01:22:40;;;;;;;10.67;7.17;;;1.90;99.90;;;;;;5200548;28;20298;-50
2022/12/07 01:25:11;;;;;;;11.80;9.03;;;2.00;99.90;;;;;;5208621;28;20478;-56
2022/12/07 01:27:42;;;;;;;9.40;7.50;;;2.10;99.90;;;;;;5211327;28;20469;-48
2022/12/07 01:30:14;;;;;;;11.63;7.10;;;2.10;99.90;;;;;;5201358;28;20440;-48
2022/12/07 01:32:46;;;;;;;6.80;6.20;;;2.10;99.90;;;;;;5210525;28;20234;-47
2022/12/07 01:35:17;;;;;;;9.17;6.70;;;2.10;99.90;;;;;;5190324;28;20453;-47
2022/12/07 01:37:48;;;;;;;8.60;6.47;;;2.00;99.90;;;;;;5192157;28;20994;-49
2022/12/07 01:40:20;;;;;;;8.43;6.83;;;2.10;99.90;;;;;;5222003;28;20176;-46
2022/12/07 01:42:51;;;;;;;7.60;6.40;;;2.00;99.90;;;;;;5199810;28;20508;-45
2022/12/07 01:45:37;;;;;;;9.07;7.07;;;2.00;99.90;;;;;;5187748;28;20505;-47
2022/12/07 01:48:11;;;;;;;8.57;6.47;;;1.90;99.90;;;;;;5204976;28;20560;-49
2022/12/07 01:50:44;;;;;;;10.17;7.53;;;2.00;99.90;;;;;;5220890;28;20437;-48
2022/12/07 01:53:16;;;;;;;9.67;6.47;;;2.10;99.90;;;;;;5217435;28;20525;-47
2022/12/07 01:55:51;;;;;;;9.57;7.40;;;2.10;99.90;;;;;;5222714;28;20528;-47
2022/12/07 01:58:23;;;;;;;6.60;6.00;;;2.10;99.90;;;;;;5201610;28;20503;-47
2022/12/07 02:00:54;;;;;;;7.40;6.20;;;2.20;99.90;;;;;;5190757;28;20430;-45
2022/12/07 02:03:31;;;;;;;9.87;6.90;;;2.20;99.90;;;;;;5215926;28;20487;-48
2022/12/07 02:06:02;;;;;;;8.23;7.03;;;2.20;99.90;;;;;;5208065;28;20537;-47
2022/12/07 02:08:34;;;;;;;10.70;6.57;;;2.20;99.90;;;;;;5204694;28;20484;-48
2022/12/07 02:11:07;;;;;;;9.27;5.40;;;2.20;99.90;;;;;;5196657;28;20434;-52
2022/12/07 02:13:40;;;;;;;6.33;5.40;;;2.30;99.90;;;;;;5205616;28;20708;-46
2022/12/07 02:16:42;;;;;;;7.57;5.00;;;2.20;99.90;;;;;;5206096;28;20457;-48
2022/12/07 02:19:34;;;;;;;6.90;4.70;;;2.20;99.90;;;;;;5220187;28;20429;-50
2022/12/07 02:22:14;;;;;;;6.10;5.10;;;2.20;99.90;;;;;;5206978;28;20423;-49
2022/12/07 02:25:03;;;;;;;6.30;4.80;;;2.10;99.90;;;;;;5201266;28;20441;-47
2022/12/07 02:27:36;;;;;;;5.83;4.70;;;2.00;99.90;;;;;;5206612;28;20479;-50
2022/12/07 02:30:09;;;;;;;12.90;5.23;;;2.00;99.90;;;;;;5217226;28;20434;-49
2022/12/07 02:32:59;;;;;;;4.70;4.30;;;1.90;99.90;;;;;;5216538;28;20473;-47
2022/12/07 02:35:57;;;;;;;4.73;4.30;;;1.90;99.90;;;;;;5205612;28;20457;-47
2022/12/07 02:38:48;;;;;;;5.67;5.17;;;1.90;99.90;;;;;;5188646;28;20458;-48
2022/12/07 02:41:43;;;;;;;4.87;4.43;;;1.90;99.90;;;;;;5206906;28;20427;-47
2022/12/07 02:44:18;;;;;;;5.70;5.10;;;1.80;99.90;;;;;;5198713;28;20560;-48
2022/12/07 02:47:04;;;;;;;10.60;6.20;;;1.80;99.90;;;;;;5204949;28;20988;-48
2022/12/07 02:49:38;;;;;;;6.77;6.07;;;1.80;99.90;;;;;;5202966;28;20556;-49
2022/12/07 02:52:09;;;;;;;8.23;5.70;;;1.70;99.90;;;;;;5221659;28;20497;-49
2022/12/07 02:54:39;;;;;;;6.70;5.40;;;1.70;99.90;;;;;;5205793;28;20445;-47
2022/12/07 02:57:51;;;;;;;6.90;6.10;;;1.70;99.90;;;;;;5210542;28;20298;-49
2022/12/07 03:00:22;;;;;;;12.80;6.10;;;1.70;99.90;;;;;;5176180;28;20273;-50
2022/12/07 03:03:15;;;;;;;6.53;5.90;;;1.90;99.90;;;;;;5213389;28;20774;-50
2022/12/07 03:05:59;;;;;;;6.50;5.90;;;1.90;99.90;;;;;;5222688;28;20449;-48
2022/12/07 03:08:52;;;;;;;8.30;7.00;;;1.90;99.90;;;;;;5207607;28;20453;-49
2022/12/07 03:11:35;;;;;;;9.23;6.33;;;1.90;99.90;;;;;;5203977;28;20437;-49
2022/12/07 03:14:18;;;;;;;10.13;6.80;;;1.90;99.90;;;;;;5209333;28;20945;-48
2022/12/07 03:17:00;;;;;;;9.70;7.07;;;1.90;99.90;;;;;;5219125;28;20493;-46
2022/12/07 03:19:32;;;;;;;9.33;7.33;;;1.80;99.90;;;;;;5213621;28;20438;-48
2022/12/07 03:22:08;;;;;;;10.37;6.63;;;1.90;99.90;;;;;;5202146;28;20499;-50
2022/12/07 03:24:46;;;;;;;8.87;6.90;;;1.90;99.90;;;;;;5220522;28;20432;-47
2022/12/07 03:27:32;;;;;;;9.60;6.90;;;1.90;99.90;;;;;;5205638;28;20469;-47
2022/12/07 03:30:19;;;;;;;10.70;6.90;;;2.00;99.90;;;;;;5204165;28;20452;-50
2022/12/07 03:32:53;;;;;;;10.27;7.37;;;2.10;99.90;;;;;;5216616;28;20821;-49
2022/12/07 03:35:49;;;;;;;9.07;7.13;;;2.00;99.90;;;;;;5196123;28;20438;-47
2022/12/07 03:38:25;;;;;;;10.33;8.27;;;2.10;99.90;;;;;;5206045;28;20534;-51
2022/12/07 03:41:07;;;;;;;12.07;8.33;;;2.20;99.90;;;;;;5219777;28;20790;-48
2022/12/07 03:43:39;;;;;;;11.40;7.50;;;2.20;99.90;;;;;;5199770;28;20425;-47
2022/12/07 03:46:25;;;;;;;8.60;6.90;;;2.20;99.90;;;;;;5206244;28;20441;-50
2022/12/07 03:49:19;;;;;;;10.37;6.93;;;2.30;99.90;;;;;;5207660;28;20549;-47
2022/12/07 03:52:08;;;;;;;13.40;9.07;;;2.30;99.90;;;;;;5202931;28;20433;-49
2022/12/07 03:54:52;;;;;;;12.70;9.13;;;2.30;99.90;;;;;;5215238;28;20798;-49
2022/12/07 03:57:25;;;;;;;18.20;8.33;;;2.30;99.90;;;;;;5199855;28;20473;-49
2022/12/07 03:59:57;;;;;;;15.53;8.77;;;2.30;99.90;;;;;;5219523;28;20430;-48
2022/12/07 04:02:28;;;;;;;11.67;8.50;;;2.40;99.90;;;;;;5189964;28;20445;-49
2022/12/07 04:04:59;;;;;;;10.87;9.23;;;2.40;99.90;;;;;;5206416;28;20805;-49
2022/12/07 04:07:30;;;;;;;20.47;10.50;;;2.40;99.90;;;;;;5203972;28;20461;-50
2022/12/07 04:10:01;;;;;;;16.53;10.03;;;2.30;99.90;;;;;;5211670;28;20184;-48
2022/12/07 04:12:31;;;;;;;20.07;10.40;;;2.30;99.90;;;;;;5220027;28;20179;-48
2022/12/07 04:15:03;;;;;;;13.90;9.90;;;2.30;99.90;;;;;;5221777;28;20206;-53
2022/12/07 04:17:34;;;;;;;14.07;10.27;;;2.20;99.90;;;;;;5200323;28;20210;-49
2022/12/07 04:20:06;;;;;;;18.17;9.43;;;2.20;99.90;;;;;;5207167;28;20437;-48
2022/12/07 04:22:37;;;;;;;15.03;10.30;;;2.20;99.90;;;;;;5216619;28;20175;-48
2022/12/07 04:25:07;;;;;;;16.43;11.33;;;2.10;99.90;;;;;;5219942;28;20444;-49
2022/12/07 04:27:38;;;;;;;15.27;10.60;;;2.20;99.90;;;;;;5220833;28;20239;-48
2022/12/07 04:30:09;;;;;;;15.13;10.53;;;2.20;99.90;;;;;;5201793;28;20282;-51
2022/12/07 04:32:40;;;;;;;17.30;10.40;;;2.10;99.90;;;;;;5205003;28;20238;-49
2022/12/07 04:35:11;;;;;;;20.00;10.80;;;2.20;99.90;;;;;;5206142;28;20437;-51
2022/12/07 04:37:42;;;;;;;16.37;10.77;;;2.20;99.90;;;;;;5201657;28;20250;-48
2022/12/07 04:40:14;;;;;;;21.37;12.83;;;2.10;99.90;;;;;;5206166;28;20277;-49
2022/12/07 04:42:44;;;;;;;17.07;11.40;;;2.10;99.90;;;;;;5220172;28;20179;-49
2022/12/07 04:45:15;;;;;;;17.17;11.10;;;2.00;99.90;;;;;;5217109;28;20662;-49
2022/12/07 04:47:46;;;;;;;18.73;11.30;;;2.00;99.90;;;;;;5204647;28;20223;-47
2022/12/07 04:50:16;;;;;;;17.27;10.70;;;2.00;99.90;;;;;;5219317;28;20218;-50
2022/12/07 04:52:47;;;;;;;17.33;10.90;;;2.00;99.90;;;;;;5204650;28;20195;-51
2022/12/07 04:55:18;;;;;;;16.40;11.70;;;2.00;99.90;;;;;;5222422;28;20199;-49
2022/12/07 04:57:48;;;;;;;20.30;12.60;;;2.00;99.90;;;;;;5205547;28;20230;-48
2022/12/07 05:00:19;;;;;;;21.03;12.60;;;2.10;99.90;;;;;;5225545;28;20650;-51
2022/12/07 05:02:50;;;;;;;23.80;14.20;;;2.10;99.90;;;;;;5214232;28;20683;-55
2022/12/07 05:05:21;;;;;;;20.57;13.80;;;2.10;99.90;;;;;;5221922;28;20544;-48
2022/12/07 05:07:51;;;;;;;18.70;12.60;;;2.20;99.90;;;;;;5201148;28;20214;-50
2022/12/07 05:10:22;;;;;;;21.70;14.07;;;2.20;99.90;;;;;;5203892;28;20790;-50
2022/12/07 05:12:53;;;;;;;26.83;14.83;;;2.20;99.90;;;;;;5225929;28;20190;-49
2022/12/07 05:15:24;;;;;;;23.97;13.80;;;2.20;99.90;;;;;;5223461;28;20186;-48
2022/12/07 05:17:54;;;;;;;23.47;14.47;;;2.20;99.90;;;;;;5196701;28;20731;-50
2022/12/07 05:20:25;;;;;;;20.97;14.63;;;2.20;99.90;;;;;;5199318;28;20936;-46
2022/12/07 05:22:58;;;;;;;23.93;16.07;;;2.20;99.90;;;;;;5206097;28;20195;-50
2022/12/07 05:25:28;;;;;;;27.33;15.13;;;2.30;99.90;;;;;;5224654;28;20178;-48
2022/12/07 05:27:59;;;;;;;21.40;15.03;;;2.30;99.90;;;;;;5201903;28;20576;-49
2022/12/07 05:30:31;;;;;;;28.80;17.67;;;2.30;99.90;;;;;;5225231;28;20195;-47
2022/12/07 05:33:02;;;;;;;28.00;15.80;;;2.40;99.90;;;;;;5217144;28;20803;-49
2022/12/07 05:35:33;;;;;;;28.17;17.10;;;2.30;99.90;;;;;;5207940;28;20450;-49
2022/12/07 05:38:04;;;;;;;28.03;17.00;;;2.40;99.90;;;;;;5207593;28;20535;-49
2022/12/07 05:40:36;;;;;;;32.40;17.33;;;2.40;99.90;;;;;;5203584;28;20270;-51
2022/12/07 05:43:06;;;;;;;25.83;16.07;;;2.40;99.90;;;;;;5211601;28;20190;-51
2022/12/07 05:45:37;;;;;;;30.77;18.00;;;2.50;99.90;;;;;;5221494;28;20435;-51
2022/12/07 05:48:08;;;;;;;34.40;19.47;;;2.50;99.90;;;;;;5198744;28;20214;-51
2022/12/07 05:50:38;;;;;;;33.40;17.87;;;2.50;99.90;;;;;;5221032;28;20183;-53
2022/12/07 05:53:09;;;;;;;29.27;17.63;;;2.50;99.90;;;;;;5220221;28;20187;-48
2022/12/07 05:55:40;;;;;;;32.70;17.60;;;2.50;99.90;;;;;;5214012;28;20559;-51
2022/12/07 06:00:59;;;;;;;31.77;17.10;;;2.70;99.90;;;;;;5216393;28;20202;-48
2022/12/07 06:03:30;;;;;;;30.53;18.67;;;2.70;99.90;;;;;;5202378;28;20442;-50
2022/12/07 06:06:01;;;;;;;38.37;18.37;;;2.70;99.90;;;;;;5211328;28;20264;-48
2022/12/07 06:08:31;;;;;;;30.63;17.67;;;2.70;99.90;;;;;;5205324;28;20209;-49
2022/12/07 06:14:02;;;;;;;29.53;17.90;;;2.80;99.90;;;;;;5139914;28;20227;-48
2022/12/07 06:16:33;;;;;;;26.80;16.43;;;2.80;99.90;;;;;;5198598;28;20548;-48
2022/12/07 06:19:04;;;;;;;52.37;18.60;;;2.80;99.90;;;;;;5199421;28;20175;-48
2022/12/07 06:21:34;;;;;;;39.00;19.20;;;2.90;99.90;;;;;;5195447;28;20609;-47
2022/12/07 06:24:05;;;;;;;34.00;18.40;;;2.90;99.90;;;;;;5205984;28;20270;-47
2022/12/07 06:26:36;;;;;;;33.60;19.67;;;2.80;99.90;;;;;;5206903;28;20702;-51
2022/12/07 06:29:07;;;;;;;37.07;18.83;;;2.80;99.90;;;;;;5218125;28;20580;-53
2022/12/07 06:31:38;;;;;;;39.63;19.63;;;2.80;99.90;;;;;;5208190;28;20195;-51
2022/12/07 06:34:12;;;;;;;31.93;19.07;;;2.90;99.90;;;;;;5213455;28;20454;-48
2022/12/07 06:36:43;;;;;;;44.10;18.60;;;2.90;99.90;;;;;;5222502;28;20213;-50
2022/12/07 06:39:14;;;;;;;23.40;15.10;;;2.90;99.90;;;;;;5225969;28;20796;-48
2022/12/07 06:41:45;;;;;;;25.53;15.07;;;2.90;99.90;;;;;;5207934;28;20425;-50
2022/12/07 06:44:16;;;;;;;38.03;16.20;;;2.90;99.90;;;;;;5229947;28;20179;-48
2022/12/07 06:46:46;;;;;;;25.37;15.53;;;2.90;99.90;;;;;;5200436;28;20461;-51
2022/12/07 06:49:17;;;;;;;28.80;17.00;;;2.80;99.90;;;;;;5198465;28;20191;-49
2022/12/07 06:51:48;;;;;;;28.70;17.07;;;2.80;99.90;;;;;;5196077;28;20218;-48
2022/12/07 06:54:19;;;;;;;30.33;18.33;;;2.90;99.90;;;;;;5215223;28;20186;-50
2022/12/07 06:56:49;;;;;;;30.70;17.90;;;2.90;99.90;;;;;;5186444;28;20654;-49
2022/12/07 06:59:20;;;;;;;32.77;18.30;;;2.90;99.90;;;;;;5200800;28;20186;-49
2022/12/07 07:01:51;;;;;;;40.07;19.13;;;2.90;99.90;;;;;;5213395;28;20179;-57
2022/12/07 07:04:22;;;;;;;37.17;19.27;;;2.90;99.90;;;;;;5199134;28;20206;-50
2022/12/07 07:06:52;;;;;;;41.20;19.83;;;2.90;99.90;;;;;;5223763;28;20194;-49
2022/12/07 07:09:23;;;;;;;34.47;19.87;;;2.90;99.90;;;;;;5209177;28;20672;-49
2022/12/07 07:11:54;;;;;;;37.83;18.70;;;2.90;99.90;;;;;;5200061;28;20180;-50
2022/12/07 07:14:24;;;;;;;39.43;21.00;;;2.90;99.90;;;;;;5201606;28;20187;-53
2022/12/07 07:16:55;;;;;;;39.20;20.00;;;2.90;99.90;;;;;;5217075;28;20238;-48
2022/12/07 07:19:26;;;;;;;34.07;18.80;;;2.90;99.90;;;;;;5211368;28;20286;-51
2022/12/07 07:21:56;;;;;;;42.53;20.60;;;3.00;99.90;;;;;;5208515;28;20325;-49
2022/12/07 07:24:27;;;;;;;47.43;20.53;;;3.00;99.90;;;;;;5218329;28;20649;-54
2022/12/07 07:26:58;;;;;;;32.83;18.73;;;3.00;99.90;;;;;;5189477;28;20223;-48
2022/12/07 07:29:28;;;;;;;44.23;18.27;;;3.10;99.90;;;;;;5204726;28;20191;-49
2022/12/07 07:32:00;;;;;;;37.83;19.50;;;3.10;99.90;;;;;;5220647;28;20187;-55
2022/12/07 07:34:30;;;;;;;35.40;18.87;;;3.10;99.90;;;;;;5208735;28;20187;-50
2022/12/07 07:37:01;;;;;;;32.93;18.03;;;3.00;99.90;;;;;;5225686;28;20469;-54
2022/12/07 07:39:32;;;;;;;32.40;16.27;;;3.10;99.90;;;;;;5207186;28;20185;-53
2022/12/07 07:42:03;;;;;;;31.73;17.87;;;3.10;99.90;;;;;;5225005;28;20258;-53
2022/12/07 07:44:34;;;;;;;29.60;16.20;;;3.10;99.90;;;;;;5207507;28;20198;-51
2022/12/07 07:47:05;;;;;;;26.93;14.57;;;3.10;99.90;;;;;;5203464;28;20881;-48
2022/12/07 07:49:36;;;;;;;22.03;14.20;;;3.10;99.90;;;;;;5202126;28;20449;-58
2022/12/07 07:52:07;;;;;;;23.47;14.07;;;3.10;99.90;;;;;;5194485;28;20690;-50
2022/12/07 07:54:38;;;;;;;24.50;14.70;;;3.00;99.90;;;;;;5197176;28;20188;-51
2022/12/07 07:57:08;;;;;;;24.80;13.20;;;3.00;99.90;;;;;;5218216;28;20230;-52
2022/12/07 07:59:39;;;;;;;21.80;12.67;;;3.10;99.90;;;;;;5203492;28;20438;-50
2022/12/07 08:02:18;;;;;;;20.33;11.27;;;3.20;99.90;;;;;;5203094;28;20607;-53
2022/12/07 08:04:49;;;;;;;20.50;10.47;;;3.20;99.90;;;;;;5202586;28;20188;-51
2022/12/07 08:07:19;;;;;;;21.00;10.80;;;3.10;99.90;;;;;;5205206;28;20514;-52
2022/12/07 08:09:50;;;;;;;19.03;10.10;;;3.20;99.90;;;;;;5208150;28;20700;-56
2022/12/07 08:12:21;;;;;;;21.43;10.83;;;3.20;99.90;;;;;;5211403;28;20670;-53
2022/12/07 08:14:52;;;;;;;16.70;10.20;;;3.20;99.90;;;;;;5202978;28;20201;-55
2022/12/07 08:17:23;;;;;;;12.27;7.43;;;3.20;99.90;;;;;;5202800;28;20326;-50
2022/12/07 08:19:54;;;;;;;11.13;9.27;;;3.30;99.90;;;;;;5209558;28;20498;-55
2022/12/07 08:22:24;;;;;;;16.60;9.30;;;3.20;99.90;;;;;;5202480;28;20897;-50
2022/12/07 08:24:55;;;;;;;16.57;8.90;;;3.20;99.90;;;;;;5203128;28;20212;-50
2022/12/07 08:27:27;;;;;;;13.87;7.73;;;3.40;99.90;;;;;;5201108;28;20238;-55
2022/12/07 08:29:57;;;;;;;9.93;7.40;;;3.30;99.90;;;;;;5228231;28;20175;-54
2022/12/07 08:32:28;;;;;;;6.80;6.20;;;3.20;99.90;;;;;;5209005;28;20958;-54
2022/12/07 08:34:59;;;;;;;7.27;5.67;;;3.20;99.90;;;;;;5202871;28;20183;-50
2022/12/07 08:37:30;;;;;;;7.50;5.40;;;3.30;99.90;;;;;;5206815;28;20754;-52
2022/12/07 08:40:01;;;;;;;15.27;5.83;;;3.30;99.90;;;;;;5208631;28;20275;-56
2022/12/07 08:42:39;;;;;;;10.30;5.40;;;3.20;99.90;;;;;;5200729;28;20433;-57
2022/12/07 08:45:14;;;;;;;6.60;4.77;;;3.20;99.90;;;;;;5210661;28;20302;-53
2022/12/07 08:47:54;;;;;;;6.07;4.97;;;3.30;99.90;;;;;;5214171;28;20863;-52
2022/12/07 08:50:25;;;;;;;9.13;4.60;;;3.30;99.90;;;;;;5205487;28;20432;-52
2022/12/07 08:52:58;;;;;;;8.47;4.47;;;3.30;99.90;;;;;;5226890;28;20460;-49
2022/12/07 08:55:29;;;;;;;5.13;4.53;;;3.30;99.90;;;;;;5232229;28;20179;-50
2022/12/07 08:58:02;;;;;;;4.10;3.80;;;3.30;99.90;;;;;;5196170;28;20478;-51
2022/12/07 09:00:32;;;;;;;3.10;2.87;;;3.40;99.90;;;;;;5223746;28;20180;-50
2022/12/07 09:03:03;;;;;;;5.63;3.33;;;3.40;99.90;;;;;;5200048;28;20586;-51
2022/12/07 09:05:34;;;;;;;2.73;2.63;;;3.50;99.90;;;;;;5202574;28;20210;-51
2022/12/07 09:08:06;;;;;;;3.53;3.27;;;3.50;99.90;;;;;;5227638;28;20199;-52
2022/12/07 09:10:37;;;;;;;7.80;4.00;;;3.50;99.90;;;;;;5218386;28;20274;-50
2022/12/07 09:13:08;;;;;;;2.63;2.43;;;3.60;99.90;;;;;;5211249;28;20434;-48
2022/12/07 09:15:39;;;;;;;3.00;2.80;;;3.70;99.90;;;;;;5227795;28;20465;-52
2022/12/07 09:18:10;;;;;;;3.07;2.87;;;3.70;99.90;;;;;;5220567;28;20466;-51
2022/12/07 09:20:41;;;;;;;3.40;3.20;;;3.80;99.90;;;;;;5217887;28;20448;-51
2022/12/07 09:23:12;;;;;;;8.70;4.50;;;4.00;99.90;;;;;;5181870;28;20480;-53
2022/12/07 09:25:43;;;;;;;4.57;4.17;;;4.00;99.90;;;;;;5196291;28;20447;-53
2022/12/07 09:28:13;;;;;;;2.07;2.00;;;4.00;99.90;;;;;;5191994;28;20219;-52
2022/12/07 09:30:48;;;;;;;1.87;1.80;;;4.00;99.90;;;;;;5220067;28;20531;-54
2022/12/07 09:33:18;;;;;;;1.20;1.20;;;4.00;99.90;;;;;;5220886;28;20180;-52
2022/12/07 09:35:51;;;;;;;6.00;1.63;;;3.90;99.90;;;;;;5206968;28;22327;-52
2022/12/07 09:38:21;;;;;;;4.43;2.53;;;3.80;99.90;;;;;;5195632;28;20213;-52
2022/12/07 09:40:54;;;;;;;2.30;2.20;;;3.80;99.90;;;;;;5211488;28;20856;-51
2022/12/07 09:43:26;;;;;;;2.23;1.90;;;3.70;99.90;;;;;;5221173;28;20271;-52
2022/12/07 09:45:57;;;;;;;2.53;2.30;;;3.60;99.90;;;;;;5213184;28;20834;-52
2022/12/07 09:48:33;;;;;;;1.67;1.67;;;3.60;99.90;;;;;;5205235;28;20486;-50
2022/12/07 09:51:16;;;;;;;9.17;1.77;;;3.60;99.90;;;;;;5216721;28;20424;-55
2022/12/07 09:53:47;;;;;;;2.07;1.97;;;3.60;99.90;;;;;;5217752;28;20446;-52
2022/12/07 09:56:19;;;;;;;2.17;2.07;;;3.60;99.90;;;;;;5212466;28;20555;-50
2022/12/07 09:58:59;;;;;;;2.47;2.27;;;3.60;99.90;;;;;;5204732;28;20530;-49
2022/12/07 10:01:32;;;;;;;2.97;2.10;;;3.50;99.90;;;;;;5216810;28;20475;-51
2022/12/07 10:04:10;;;;;;;2.30;2.20;;;3.60;99.90;;;;;;5218604;28;20767;-51
2022/12/07 10:06:42;;;;;;;2.67;2.47;;;3.60;99.90;;;;;;5204387;28;20446;-51
2022/12/07 10:09:18;;;;;;;4.77;2.70;;;3.70;99.90;;;;;;5223125;28;20437;-52
2022/12/07 10:12:11;;;;;;;1.60;1.50;;;3.70;99.90;;;;;;5214121;28;20440;-52
2022/12/07 10:15:02;;;;;;;1.43;1.40;;;3.70;99.90;;;;;;5199253;28;21216;-51
2022/12/07 10:17:36;;;;;;;1.63;1.53;;;3.80;99.90;;;;;;5211172;28;20473;-53
2022/12/07 10:20:22;;;;;;;8.03;1.93;;;3.90;99.90;;;;;;5203239;28;20443;-51
2022/12/07 10:23:05;;;;;;;2.27;2.13;;;3.90;99.90;;;;;;5215785;28;20522;-52
2022/12/07 10:25:38;;;;;;;2.53;2.40;;;3.90;99.90;;;;;;5214608;28;22681;-52
2022/12/07 10:28:08;;;;;;;1.40;1.40;;;3.80;99.90;;;;;;5203030;28;20507;-49
2022/12/07 10:30:53;;;;;;;1.70;1.70;;;3.80;99.90;;;;;;5219579;28;20480;-50
2022/12/07 10:34:11;;;;;;;1.20;1.20;;;4.00;99.90;;;;;;5179627;28;20197;-49
2022/12/07 10:36:41;;;;;;;1.30;1.20;;;3.90;99.90;;;;;;5194726;28;20866;-52
2022/12/07 10:39:22;;;;;;;2.27;2.17;;;4.00;99.90;;;;;;5217102;28;20478;-51
2022/12/07 10:41:58;;;;;;;1.60;1.50;;;4.10;99.90;;;;;;5198569;28;20192;-52
2022/12/07 10:44:32;;;;;;;2.57;2.47;;;3.90;99.90;;;;;;5199700;28;20446;-52
2022/12/07 10:47:18;;;;;;;1.97;1.83;;;4.00;99.90;;;;;;5225127;28;20454;-51
2022/12/07 10:50:23;;;;;;;1.80;1.70;;;3.80;99.90;;;;;;5221381;28;21526;-52
2022/12/07 10:53:11;;;;;;;3.80;2.07;;;3.90;99.90;;;;;;5212667;28;20442;-52
2022/12/07 10:56:10;;;;;;;3.37;1.63;;;3.80;99.90;;;;;;5195107;28;20529;-51
2022/12/07 10:59:08;;;;;;;2.80;2.00;;;3.70;99.90;;;;;;5216562;28;20470;-50
2022/12/07 11:01:42;;;;;;;2.17;2.07;;;3.60;99.90;;;;;;5203279;28;20445;-52
2022/12/07 11:04:30;;;;;;;3.50;2.43;;;3.60;99.90;;;;;;5225320;28;20445;-52
2022/12/07 11:07:06;;;;;;;2.43;2.33;;;3.70;99.90;;;;;;5208473;28;21064;-50
2022/12/07 11:10:02;;;;;;;3.47;2.40;;;3.60;99.90;;;;;;5199501;28;20439;-51
2022/12/07 11:12:54;;;;;;;18.77;7.17;;;3.80;99.90;;;;;;5199670;28;20434;-50
2022/12/07 11:15:57;;;;;;;2.73;2.53;;;4.00;99.90;;;;;;5203782;28;20553;-52
2022/12/07 11:18:36;;;;;;;3.93;2.70;;;4.00;99.90;;;;;;5196685;28;20475;-52
2022/12/07 11:21:31;;;;;;;2.60;2.30;;;4.10;99.90;;;;;;5191627;28;20444;-52
2022/12/07 11:24:19;;;;;;;3.83;2.67;;;4.10;99.90;;;;;;5216462;28;20442;-52
2022/12/07 11:27:11;;;;;;;6.73;5.43;;;4.00;99.90;;;;;;5216710;28;20459;-54
2022/12/07 11:30:01;;;;;;;4.33;3.60;;;4.10;99.90;;;;;;5219277;28;20433;-52
2022/12/07 11:32:56;;;;;;;3.30;2.57;;;4.00;99.90;;;;;;5210793;28;20593;-54
2022/12/07 11:35:57;;;;;;;7.17;4.27;;;4.00;99.90;;;;;;5202473;28;20943;-53
2022/12/07 11:38:45;;;;;;;6.33;3.10;;;3.90;99.90;;;;;;5203065;28;20509;-53
2022/12/07 11:41:27;;;;;;;2.40;2.20;;;3.90;99.90;;;;;;5195999;28;20457;-52
2022/12/07 11:44:25;;;;;;;14.30;8.30;;;3.90;99.90;;;;;;5221494;28;20790;-52
2022/12/07 11:47:13;;;;;;;5.37;4.47;;;4.00;99.90;;;;;;5220508;28;20455;-51
2022/12/07 11:50:14;;;;;;;12.53;6.63;;;4.00;99.90;;;;;;5207789;28;20994;-52
2022/12/07 11:52:51;;;;;;;4.37;3.80;;;3.90;99.90;;;;;;5226662;28;20446;-52
2022/12/07 11:55:26;;;;;;;5.23;4.23;;;4.00;99.90;;;;;;5206473;28;20426;-53
2022/12/07 11:58:10;;;;;;;10.03;5.03;;;3.90;99.90;;;;;;5224093;28;20467;-52
2022/12/07 12:00:42;;;;;;;7.70;5.57;;;4.00;99.90;;;;;;5226693;28;20459;-52
2022/12/07 12:03:17;;;;;;;20.73;12.13;;;4.10;99.90;;;;;;5205088;28;20470;-52
2022/12/07 12:05:49;;;;;;;24.60;9.77;;;4.20;99.90;;;;;;5227636;28;20442;-51
2022/12/07 12:08:32;;;;;;;14.73;6.33;;;4.30;99.90;;;;;;5213215;28;20865;-51
2022/12/07 12:11:17;;;;;;;8.37;6.60;;;4.30;99.90;;;;;;5220302;28;20598;-52
2022/12/07 12:14:00;;;;;;;5.37;4.60;;;4.30;99.90;;;;;;5215584;28;20433;-53
2022/12/07 12:17:00;;;;;;;16.63;7.20;;;4.30;99.90;;;;;;5210181;28;20498;-53
2022/12/07 12:19:40;;;;;;;7.63;5.20;;;4.40;99.90;;;;;;5203809;28;20514;-52
2022/12/07 12:22:19;;;;;;;23.30;8.17;;;4.30;99.90;;;;;;5192876;28;20441;-53
2022/12/07 12:24:53;;;;;;;6.90;4.30;;;4.40;99.90;;;;;;5207452;28;20424;-51
2022/12/07 12:27:30;;;;;;;7.70;4.93;;;4.40;99.90;;;;;;5192165;28;20565;-53
2022/12/07 12:30:23;;;;;;;3.70;2.53;;;4.40;99.90;;;;;;5224684;28;20686;-52
2022/12/07 12:33:11;;;;;;;6.57;2.87;;;4.50;99.90;;;;;;5224955;28;20489;-52
2022/12/07 12:35:42;;;;;;;2.63;2.43;;;4.40;99.90;;;;;;5220125;28;20495;-52
2022/12/07 12:38:33;;;;;;;6.43;2.70;;;4.40;99.90;;;;;;5201036;28;20464;-51
2022/12/07 12:41:04;;;;;;;2.80;2.20;;;4.40;99.90;;;;;;5209936;28;20972;-51
2022/12/07 12:43:45;;;;;;;3.77;2.50;;;4.40;99.90;;;;;;5209188;28;20996;-52
2022/12/07 12:46:33;;;;;;;12.23;3.07;;;4.60;99.90;;;;;;5206079;28;20451;-53
2022/12/07 12:49:16;;;;;;;5.33;3.30;;;4.50;99.90;;;;;;5205944;28;20803;-53
2022/12/07 12:51:54;;;;;;;8.43;4.00;;;4.50;99.90;;;;;;5219126;28;20435;-53
2022/12/07 12:54:26;;;;;;;8.70;3.07;;;4.50;99.90;;;;;;5223787;28;21221;-51
2022/12/07 12:57:36;;;;;;;3.53;1.90;;;4.50;99.90;;;;;;5222285;28;20478;-52
2022/12/07 13:00:17;;;;;;;7.57;3.20;;;4.40;99.90;;;;;;5141033;28;20443;-52
2022/12/07 13:02:56;;;;;;;7.17;4.10;;;4.40;99.90;;;;;;5143561;28;20623;-53
2022/12/07 13:05:29;;;;;;;6.03;3.47;;;4.40;99.90;;;;;;5191422;28;20541;-51
2022/12/07 13:08:18;;;;;;;19.10;6.20;;;4.40;99.90;;;;;;5205967;28;20462;-51
2022/12/07 13:10:48;;;;;;;11.50;3.60;;;4.40;99.90;;;;;;5184815;28;20443;-51
2022/12/07 13:13:30;;;;;;;12.50;4.00;;;4.40;99.90;;;;;;5221639;28;20451;-50
2022/12/07 13:16:07;;;;;;;7.77;2.57;;;4.40;99.90;;;;;;5187837;28;20547;-51
2022/12/07 13:18:38;;;;;;;4.53;2.70;;;4.30;99.90;;;;;;5202547;28;20448;-53
2022/12/07 13:21:09;;;;;;;7.97;4.13;;;4.30;99.90;;;;;;5206113;28;20497;-51
2022/12/07 13:23:45;;;;;;;11.17;4.10;;;4.30;99.90;;;;;;5218688;28;20437;-50
2022/12/07 13:26:39;;;;;;;8.33;4.20;;;4.20;99.90;;;;;;5201597;28;20188;-50
2022/12/07 13:29:09;;;;;;;4.63;2.73;;;4.20;99.90;;;;;;5191961;28;20463;-52
2022/12/07 13:31:52;;;;;;;3.97;2.83;;;4.20;99.90;;;;;;5217093;28;20438;-51
2022/12/07 13:34:37;;;;;;;3.80;2.57;;;4.10;99.90;;;;;;5217918;28;20193;-52
2022/12/07 13:37:24;;;;;;;2.67;2.00;;;4.10;99.90;;;;;;5199941;28;21000;-53
2022/12/07 13:40:01;;;;;;;12.07;1.93;;;4.10;99.90;;;;;;5201648;28;21063;-52